Time;durP1;ratioP1;P1;durP2;ratioP2;P2;SDS_P1;SDS_P2;PMS_P1;PMS_P2;Temp;Humidity;BMP_temperature;BMP_pressure;BME280_temperature;BME280_humidity;BME280_pressure;Samples;Min_cycle;Max_cycle;Signal;HPM_P1;HPM_P2
2021/09/20 00:01:59;;;;;;;;;;;;;;;10.71;78.38;97074.35;116777;1177;59539;-67
2021/09/20 00:04:29;;;;;;;;;;;;;;;10.68;77.90;97070.74;116774;1177;59516;-68
2021/09/20 00:06:59;;;;;;;;;;;;;;;10.60;79.40;97069.58;116685;1179;71369;-65
2021/09/20 00:09:28;;;;;;;;;;;;;;;10.54;79.31;97070.11;116696;1178;68869;-66
2021/09/20 00:11:58;;;;;;;;;;;;;;;10.48;78.98;97069.67;116719;1177;68286;-67
2021/09/20 00:14:28;;;;;;;;;;;;;;;10.42;78.75;97063.48;116755;1177;59494;-68
2021/09/20 00:16:58;;;;;;;;;;;;;;;10.35;80.25;97067.19;116735;1177;59514;-65
2021/09/20 00:19:28;;;;;;;;;;;;;;;10.25;80.93;97070.23;116707;1177;70543;-67
2021/09/20 00:21:58;;;;;;;;;;;;;;;10.16;81.52;97072.11;116735;1177;68504;-66
2021/09/20 00:24:28;;;;;;;;;;;;;;;10.10;81.48;97074.66;116847;1178;68491;-67
2021/09/20 00:26:58;;;;;;;;;;;;;;;10.03;81.36;97078.00;116702;1178;60007;-67
2021/09/20 00:29:28;;;;;;;;;;;;;;;9.98;80.76;97078.92;116750;1177;59508;-64
2021/09/20 00:31:58;;;;;;;;;;;;;;;9.90;82.01;97076.16;116776;1177;71368;-65
2021/09/20 00:34:28;;;;;;;;;;;;;;;9.85;82.00;97075.90;116776;1177;69210;-66
2021/09/20 00:36:58;;;;;;;;;;;;;;;9.81;82.29;97076.20;116612;1178;68734;-68
2021/09/20 00:39:27;;;;;;;;;;;;;;;9.77;82.29;97075.05;116650;1179;59525;-68
2021/09/20 00:41:57;;;;;;;;;;;;;;;9.77;80.77;97073.55;116784;1177;59507;-67
2021/09/20 00:44:27;;;;;;;;;;;;;;;9.74;83.91;97080.73;116612;1179;70535;-66
2021/09/20 00:46:57;;;;;;;;;;;;;;;9.72;84.50;97080.86;116837;1177;69313;-67
2021/09/20 00:49:26;;;;;;;;;;;;;;;9.73;83.64;97083.74;116771;1177;67681;-66
2021/09/20 00:51:57;;;;;;;;;;;;;;;9.75;82.96;97086.15;116909;1177;59503;-66
2021/09/20 00:54:28;;;;;;;;;;;;;;;9.76;83.20;97085.59;116731;1177;59542;-65
2021/09/20 00:56:59;;;;;;;;;;;;;;;9.75;83.95;97086.00;116741;1177;71601;-67
2021/09/20 00:59:30;;;;;;;;;;;;;;;9.73;83.93;97080.59;116786;1177;68689;-67
2021/09/20 01:02:00;;;;;;;;;;;;;;;9.70;84.09;97068.98;116826;1177;69146;-67
2021/09/20 01:04:30;;;;;;;;;;;;;;;9.66;83.97;97067.55;116830;1177;60248;-67
2021/09/20 01:07:00;;;;;;;;;;;;;;;9.60;84.77;97060.65;116708;1177;59603;-65
2021/09/20 01:09:31;;;;;;;;;;;;;;;9.53;84.94;97063.45;116826;1178;70556;-67
2021/09/20 01:12:03;;;;;;;;;;;;;;;9.47;84.50;97060.92;116735;1177;68465;-67
2021/09/20 01:14:33;;;;;;;;;;;;;;;9.45;83.37;97062.68;116760;1177;68442;-64
2021/09/20 01:17:05;;;;;;;;;;;;;;;9.40;83.75;97065.13;116655;1178;59539;-67
2021/09/20 01:19:34;;;;;;;;;;;;;;;9.35;83.09;97068.62;116749;1177;59519;-66
2021/09/20 01:22:23;;;;;;;;;;;;;;;9.31;82.95;97072.91;116806;1177;70707;-65
2021/09/20 01:24:54;;;;;;;;;;;;;;;9.28;83.45;97073.67;117092;1177;69229;-66
2021/09/20 01:27:25;;;;;;;;;;;;;;;9.25;83.67;97070.92;116824;1177;69248;-68
2021/09/20 01:29:55;;;;;;;;;;;;;;;9.21;83.77;97069.62;116738;1178;60476;-67
2021/09/20 01:32:25;;;;;;;;;;;;;;;9.15;84.62;97061.55;116931;1177;60048;-67
2021/09/20 01:34:55;;;;;;;;;;;;;;;9.10;84.32;97062.79;116771;1177;71357;-65
2021/09/20 01:37:24;;;;;;;;;;;;;;;9.05;83.33;97066.79;116840;1177;68440;-66
2021/09/20 01:39:55;;;;;;;;;;;;;;;9.01;84.22;97069.67;116757;1177;69043;-66
2021/09/20 01:42:26;;;;;;;;;;;;;;;8.97;83.86;97069.84;116704;1178;59519;-66
2021/09/20 01:44:55;;;;;;;;;;;;;;;8.93;82.65;97069.92;116782;1177;59602;-66
2021/09/20 01:47:26;;;;;;;;;;;;;;;8.88;83.41;97068.70;116757;1177;71679;-66
2021/09/20 01:49:56;;;;;;;;;;;;;;;8.84;83.83;97071.10;116756;1177;68478;-65
2021/09/20 01:52:27;;;;;;;;;;;;;;;8.80;84.33;97070.17;116748;1177;67343;-66
2021/09/20 01:54:56;;;;;;;;;;;;;;;8.74;85.21;97071.96;117020;1177;59505;-67
2021/09/20 01:57:27;;;;;;;;;;;;;;;8.67;85.84;97072.95;116756;1177;59548;-65
2021/09/20 01:59:57;;;;;;;;;;;;;;;8.61;85.94;97071.79;116766;1177;71306;-66
2021/09/20 02:02:28;;;;;;;;;;;;;;;8.58;84.77;97069.80;116801;1177;69104;-67
2021/09/20 02:04:59;;;;;;;;;;;;;;;8.55;83.77;97069.63;116723;1177;69050;-67
2021/09/20 02:07:29;;;;;;;;;;;;;;;8.52;83.80;97073.31;116685;1180;59511;-67
2021/09/20 02:10:00;;;;;;;;;;;;;;;8.49;85.85;97077.70;116767;1177;59598;-67
2021/09/20 02:12:30;;;;;;;;;;;;;;;8.47;86.68;97077.16;116768;1177;70627;-64
2021/09/20 02:15:01;;;;;;;;;;;;;;;8.47;86.58;97075.30;116781;1177;69234;-67
2021/09/20 02:17:31;;;;;;;;;;;;;;;8.47;85.06;97070.23;116832;1177;68419;-66
2021/09/20 02:20:03;;;;;;;;;;;;;;;8.51;82.99;97067.82;116856;1178;59506;-65
2021/09/20 02:22:34;;;;;;;;;;;;;;;8.55;83.05;97062.70;116769;1177;59507;-68
2021/09/20 02:25:07;;;;;;;;;;;;;;;8.59;83.38;97059.80;117045;1177;70545;-66
2021/09/20 02:27:37;;;;;;;;;;;;;;;8.59;85.63;97058.40;116825;1177;67487;-66
2021/09/20 02:30:08;;;;;;;;;;;;;;;8.59;86.85;97051.66;116838;1177;69257;-65
2021/09/20 02:32:38;;;;;;;;;;;;;;;8.60;87.44;97050.34;116728;1177;59540;-66
2021/09/20 02:35:09;;;;;;;;;;;;;;;8.63;88.10;97054.32;116719;1177;59524;-67
2021/09/20 02:37:39;;;;;;;;;;;;;;;8.69;86.65;97060.70;117029;1177;70624;-64
2021/09/20 02:40:10;;;;;;;;;;;;;;;8.71;86.66;97059.71;116783;1177;68469;-64
2021/09/20 02:42:40;;;;;;;;;;;;;;;8.73;85.02;97055.20;116770;1177;68396;-66
2021/09/20 02:45:10;;;;;;;;;;;;;;;8.74;84.59;97055.15;116764;1177;59606;-65
2021/09/20 02:47:40;;;;;;;;;;;;;;;8.76;84.31;97053.23;116775;1177;59466;-66
2021/09/20 02:50:11;;;;;;;;;;;;;;;8.77;86.09;97055.73;116965;1177;71383;-65
2021/09/20 02:52:41;;;;;;;;;;;;;;;8.78;86.92;97057.63;116744;1177;68409;-66
2021/09/20 02:55:12;;;;;;;;;;;;;;;8.77;86.61;97051.61;116847;1177;69349;-66
2021/09/20 02:57:43;;;;;;;;;;;;;;;8.79;85.67;97051.77;116825;1177;59548;-67
2021/09/20 03:00:13;;;;;;;;;;;;;;;8.82;85.40;97049.00;116684;1177;59549;-66
2021/09/20 03:02:43;;;;;;;;;;;;;;;8.85;85.02;97055.37;116804;1177;71267;-66
2021/09/20 03:05:13;;;;;;;;;;;;;;;8.89;85.03;97053.48;116731;1177;68501;-66
2021/09/20 03:07:44;;;;;;;;;;;;;;;8.93;84.51;97056.89;116712;1177;69194;-65
2021/09/20 03:10:14;;;;;;;;;;;;;;;8.97;83.69;97055.58;116697;1177;59539;-67
2021/09/20 03:12:45;;;;;;;;;;;;;;;9.01;84.28;97056.66;116724;1177;59574;-66
2021/09/20 03:15:15;;;;;;;;;;;;;;;9.04;85.27;97060.98;116716;1177;71468;-67
2021/09/20 03:17:46;;;;;;;;;;;;;;;9.06;85.30;97061.13;116752;1178;70259;-68
2021/09/20 03:20:15;;;;;;;;;;;;;;;9.10;85.04;97058.91;116775;1177;69371;-68
2021/09/20 03:22:46;;;;;;;;;;;;;;;9.15;83.66;97057.90;116957;1177;59497;-69
2021/09/20 03:25:16;;;;;;;;;;;;;;;9.18;83.78;97060.27;117075;1177;59548;-67
2021/09/20 03:27:45;;;;;;;;;;;;;;;9.22;84.78;97062.61;116777;1177;71180;-68
2021/09/20 03:30:16;;;;;;;;;;;;;;;9.25;84.78;97064.83;116834;1177;69213;-67
2021/09/20 03:32:46;;;;;;;;;;;;;;;9.28;85.43;97066.84;116796;1177;68408;-67
2021/09/20 03:35:15;;;;;;;;;;;;;;;9.29;84.72;97071.15;116740;1177;60103;-66
2021/09/20 03:37:46;;;;;;;;;;;;;;;9.30;84.01;97066.87;116798;1177;59493;-66
2021/09/20 03:40:17;;;;;;;;;;;;;;;9.33;83.71;97063.91;116769;1177;70790;-65
2021/09/20 03:42:46;;;;;;;;;;;;;;;9.36;82.89;97057.61;116692;1177;68468;-65
2021/09/20 03:45:16;;;;;;;;;;;;;;;9.37;83.31;97059.42;116756;1177;68484;-65
2021/09/20 03:47:45;;;;;;;;;;;;;;;9.36;83.99;97052.36;116738;1178;59523;-66
2021/09/20 03:50:15;;;;;;;;;;;;;;;9.32;84.14;97048.46;116720;1179;59553;-67
2021/09/20 03:52:46;;;;;;;;;;;;;;;9.31;84.17;97041.31;116704;1177;71380;-67
2021/09/20 03:55:15;;;;;;;;;;;;;;;9.29;84.26;97039.33;116786;1177;69147;-65
2021/09/20 03:57:45;;;;;;;;;;;;;;;9.27;84.27;97040.39;116668;1177;68464;-67
2021/09/20 04:00:14;;;;;;;;;;;;;;;9.30;83.46;97054.05;116597;1179;59542;-66
2021/09/20 04:02:44;;;;;;;;;;;;;;;9.32;83.25;97055.46;116755;1177;59535;-66
2021/09/20 04:05:19;;;;;;;;;;;;;;;9.34;83.25;97052.54;116859;1177;70560;-65
2021/09/20 04:07:48;;;;;;;;;;;;;;;9.36;82.79;97058.63;116750;1177;69202;-66
2021/09/20 04:10:18;;;;;;;;;;;;;;;9.38;82.88;97060.40;116866;1177;70365;-68
2021/09/20 04:12:47;;;;;;;;;;;;;;;9.38;83.16;97062.33;116728;1177;59533;-65
2021/09/20 04:15:17;;;;;;;;;;;;;;;9.40;82.72;97067.90;116732;1177;59575;-65
2021/09/20 04:17:47;;;;;;;;;;;;;;;9.39;83.26;97072.33;116787;1177;70449;-67
2021/09/20 04:20:16;;;;;;;;;;;;;;;9.40;83.05;97068.97;116752;1177;69013;-65
2021/09/20 04:22:47;;;;;;;;;;;;;;;9.42;82.99;97075.02;116798;1177;68342;-66
2021/09/20 04:25:17;;;;;;;;;;;;;;;9.43;83.10;97076.20;116684;1178;59530;-66
2021/09/20 04:27:46;;;;;;;;;;;;;;;9.44;83.22;97079.95;116800;1178;59540;-64
2021/09/20 04:30:16;;;;;;;;;;;;;;;9.43;83.42;97080.36;116893;1177;70596;-65
2021/09/20 04:32:45;;;;;;;;;;;;;;;9.46;83.00;97080.68;116744;1177;69205;-66
2021/09/20 04:35:14;;;;;;;;;;;;;;;9.47;82.85;97074.34;116805;1177;69575;-66
2021/09/20 04:37:44;;;;;;;;;;;;;;;9.49;82.48;97072.64;116738;1177;59552;-67
2021/09/20 04:40:13;;;;;;;;;;;;;;;9.50;82.46;97071.90;116767;1177;59564;-65
2021/09/20 04:42:43;;;;;;;;;;;;;;;9.48;82.24;97069.40;116757;1177;71358;-67
2021/09/20 04:45:12;;;;;;;;;;;;;;;9.42;82.22;97075.89;116826;1177;68392;-66
2021/09/20 04:47:42;;;;;;;;;;;;;;;9.41;82.14;97080.30;116740;1177;68278;-65
2021/09/20 04:50:12;;;;;;;;;;;;;;;9.39;82.50;97082.36;116738;1177;59648;-67
2021/09/20 04:52:41;;;;;;;;;;;;;;;9.39;82.61;97086.89;116767;1177;59474;-66
2021/09/20 04:55:10;;;;;;;;;;;;;;;9.40;82.51;97087.01;116799;1177;71327;-65
2021/09/20 04:57:39;;;;;;;;;;;;;;;9.40;82.34;97085.42;116861;1177;69137;-67
2021/09/20 05:00:10;;;;;;;;;;;;;;;9.39;82.54;97089.34;116785;1177;68313;-67
2021/09/20 05:02:39;;;;;;;;;;;;;;;9.36;82.47;97094.78;117065;1177;59528;-67
2021/09/20 05:05:09;;;;;;;;;;;;;;;9.38;82.39;97094.15;116694;1177;59541;-65
2021/09/20 05:07:38;;;;;;;;;;;;;;;9.34;82.71;97102.27;116741;1177;71159;-66
2021/09/20 05:10:09;;;;;;;;;;;;;;;9.33;82.68;97098.67;116850;1177;69188;-67
2021/09/20 05:12:38;;;;;;;;;;;;;;;9.33;82.73;97099.21;116789;1177;69052;-65
2021/09/20 05:15:08;;;;;;;;;;;;;;;9.37;82.50;97101.52;116916;1177;59481;-67
2021/09/20 05:17:37;;;;;;;;;;;;;;;9.42;82.30;97102.02;116771;1177;59544;-65
2021/09/20 05:20:10;;;;;;;;;;;;;;;9.48;81.98;97098.46;116614;1177;70402;-64
2021/09/20 05:22:40;;;;;;;;;;;;;;;9.54;81.77;97103.06;117110;1177;69056;-64
2021/09/20 05:25:10;;;;;;;;;;;;;;;9.58;81.37;97103.95;116714;1177;70076;-65
2021/09/20 05:27:39;;;;;;;;;;;;;;;9.64;81.42;97103.31;117061;1177;59513;-69
2021/09/20 05:30:09;;;;;;;;;;;;;;;9.76;81.44;97105.78;116848;1177;59511;-65
2021/09/20 05:32:38;;;;;;;;;;;;;;;9.87;80.71;97108.23;116900;1177;71220;-64
2021/09/20 05:35:10;;;;;;;;;;;;;;;9.98;80.08;97106.38;116939;1177;69151;-65
2021/09/20 05:37:39;;;;;;;;;;;;;;;10.09;80.13;97111.13;116722;1178;68512;-66
2021/09/20 05:40:09;;;;;;;;;;;;;;;10.26;78.89;97114.05;116858;1177;59522;-66
2021/09/20 05:42:39;;;;;;;;;;;;;;;10.26;79.13;97114.74;116908;1177;59542;-65
2021/09/20 05:45:09;;;;;;;;;;;;;;;10.32;79.30;97119.88;116940;1177;71946;-65
2021/09/20 05:47:38;;;;;;;;;;;;;;;10.43;79.13;97126.70;116869;1177;68534;-65
2021/09/20 05:50:13;;;;;;;;;;;;;;;10.52;78.75;97123.69;116879;1177;67950;-65
2021/09/20 05:52:42;;;;;;;;;;;;;;;10.61;78.63;97128.95;116868;1177;59536;-64
2021/09/20 05:55:12;;;;;;;;;;;;;;;10.68;77.96;97126.27;116904;1177;59503;-65
2021/09/20 05:57:42;;;;;;;;;;;;;;;10.80;78.40;97127.84;116865;1177;71358;-65
2021/09/20 06:00:13;;;;;;;;;;;;;;;10.96;78.15;97126.73;116931;1177;68765;-64
2021/09/20 06:02:47;;;;;;;;;;;;;;;11.13;77.89;97125.05;116805;1177;68204;-65
2021/09/20 06:05:17;;;;;;;;;;;;;;;11.30;77.60;97124.08;116882;1177;59560;-65
2021/09/20 06:07:46;;;;;;;;;;;;;;;11.37;76.13;97122.65;116874;1177;59613;-67
2021/09/20 06:10:17;;;;;;;;;;;;;;;11.34;75.98;97121.31;116754;1177;71390;-65
2021/09/20 06:12:47;;;;;;;;;;;;;;;11.42;76.54;97117.67;116734;1180;68185;-65
2021/09/20 06:15:15;;;;;;;;;;;;;;;11.50;76.35;97116.80;116856;1177;69365;-64
2021/09/20 06:17:45;;;;;;;;;;;;;;;11.62;76.34;97115.53;116875;1177;59540;-69
2021/09/20 06:20:15;;;;;;;;;;;;;;;11.74;76.22;97114.00;117011;1177;59516;-66
2021/09/20 06:22:44;;;;;;;;;;;;;;;11.85;76.23;97107.55;116753;1177;70642;-68
2021/09/20 06:25:13;;;;;;;;;;;;;;;11.97;75.70;97104.96;116740;1178;69445;-66
2021/09/20 06:27:43;;;;;;;;;;;;;;;12.10;75.72;97099.84;116660;1180;69769;-67
2021/09/20 06:30:13;;;;;;;;;;;;;;;12.26;75.02;97097.84;117017;1177;59914;-67
2021/09/20 06:32:42;;;;;;;;;;;;;;;12.47;74.93;97102.66;116930;1177;59539;-66
2021/09/20 06:35:11;;;;;;;;;;;;;;;12.67;74.38;97103.23;116845;1177;71472;-67
2021/09/20 06:37:41;;;;;;;;;;;;;;;12.79;73.03;97105.52;116939;1177;69054;-65
2021/09/20 06:40:11;;;;;;;;;;;;;;;12.84;71.38;97100.25;116855;1177;68279;-66
2021/09/20 06:42:41;;;;;;;;;;;;;;;12.91;72.62;97102.92;116833;1177;59491;-67
2021/09/20 06:45:11;;;;;;;;;;;;;;;12.98;71.49;97103.16;116851;1177;59542;-67
2021/09/20 06:47:40;;;;;;;;;;;;;;;13.05;72.37;97098.77;116923;1177;71414;-66
2021/09/20 06:50:09;;;;;;;;;;;;;;;13.13;70.53;97095.33;116844;1177;68098;-67
2021/09/20 06:52:38;;;;;;;;;;;;;;;13.23;68.64;97095.38;116655;1179;69294;-66
2021/09/20 06:55:08;;;;;;;;;;;;;;;13.51;68.86;97094.80;116851;1177;59759;-65
2021/09/20 06:57:37;;;;;;;;;;;;;;;13.91;68.53;97099.23;116882;1177;59535;-67
2021/09/20 07:00:08;;;;;;;;;;;;;;;14.14;67.99;97104.90;116817;1178;71430;-64
2021/09/20 07:02:37;;;;;;;;;;;;;;;14.29;67.19;97105.58;116924;1179;68130;-65
2021/09/20 07:05:11;;;;;;;;;;;;;;;14.52;65.69;97104.65;116847;1177;67620;-66
2021/09/20 07:07:40;;;;;;;;;;;;;;;14.87;63.79;97112.79;116884;1177;59539;-65
2021/09/20 07:10:12;;;;;;;;;;;;;;;15.06;62.63;97114.83;116901;1177;59513;-68
2021/09/20 07:12:41;;;;;;;;;;;;;;;15.07;61.85;97112.98;116843;1177;70434;-68
2021/09/20 07:15:12;;;;;;;;;;;;;;;15.04;61.26;97114.17;116919;1177;69175;-68
2021/09/20 07:17:41;;;;;;;;;;;;;;;15.03;61.58;97114.73;117037;1177;68293;-66
2021/09/20 07:20:10;;;;;;;;;;;;;;;14.92;60.99;97120.21;116801;1177;59596;-69
2021/09/20 07:22:40;;;;;;;;;;;;;;;15.06;61.23;97122.06;117128;1177;59559;-66
2021/09/20 07:25:09;;;;;;;;;;;;;;;15.07;61.43;97125.44;117035;1177;71226;-68
2021/09/20 07:27:38;;;;;;;;;;;;;;;15.05;61.09;97126.19;117008;1177;68125;-66
2021/09/20 07:30:08;;;;;;;;;;;;;;;14.97;61.16;97122.20;116771;1177;68448;-67
2021/09/20 07:32:37;;;;;;;;;;;;;;;14.90;61.41;97123.02;116835;1177;59535;-65
2021/09/20 07:35:07;;;;;;;;;;;;;;;14.78;60.46;97125.60;116906;1177;59479;-66
2021/09/20 07:37:37;;;;;;;;;;;;;;;14.71;60.60;97128.39;116923;1177;71849;-67
2021/09/20 07:40:06;;;;;;;;;;;;;;;14.69;61.89;97127.31;116905;1177;68380;-69
2021/09/20 07:42:36;;;;;;;;;;;;;;;14.75;61.51;97124.30;116985;1177;68073;-67
2021/09/20 07:45:08;;;;;;;;;;;;;;;14.81;60.45;97122.64;116814;1177;59494;-68
2021/09/20 07:47:37;;;;;;;;;;;;;;;14.87;60.15;97127.23;116841;1177;59571;-65
2021/09/20 07:50:07;;;;;;;;;;;;;;;15.00;60.37;97125.99;116927;1177;72038;-66
2021/09/20 07:52:36;;;;;;;;;;;;;;;15.15;60.03;97126.67;116854;1177;68572;-68
2021/09/20 07:55:07;;;;;;;;;;;;;;;15.19;58.32;97130.09;117013;1177;69046;-66
2021/09/20 07:57:36;;;;;;;;;;;;;;;15.15;58.39;97129.58;116823;1177;59530;-65
2021/09/20 08:00:06;;;;;;;;;;;;;;;15.20;60.00;97126.33;116913;1177;59580;-66
2021/09/20 08:02:35;;;;;;;;;;;;;;;15.30;60.12;97122.20;116901;1177;72691;-66
2021/09/20 08:05:06;;;;;;;;;;;;;;;15.37;60.36;97122.24;116787;1177;69049;-67
2021/09/20 08:07:35;;;;;;;;;;;;;;;15.36;57.75;97122.33;116983;1177;69059;-65
2021/09/20 08:10:04;;;;;;;;;;;;;;;15.10;56.69;97117.27;116850;1177;59567;-65
2021/09/20 08:12:33;;;;;;;;;;;;;;;14.98;58.00;97120.66;116857;1177;59568;-68
2021/09/20 08:15:04;;;;;;;;;;;;;;;15.02;58.99;97115.54;116818;1177;70773;-67
2021/09/20 08:17:33;;;;;;;;;;;;;;;14.95;59.18;97116.46;117041;1177;68473;-65
2021/09/20 08:20:04;;;;;;;;;;;;;;;14.95;58.91;97121.66;116831;1177;67602;-67
2021/09/20 08:22:34;;;;;;;;;;;;;;;15.04;59.33;97115.53;116774;1179;59528;-67
2021/09/20 08:25:04;;;;;;;;;;;;;;;15.18;59.71;97106.86;117039;1177;59483;-66
2021/09/20 08:27:33;;;;;;;;;;;;;;;15.34;58.99;97105.63;116997;1177;71165;-67
2021/09/20 08:30:03;;;;;;;;;;;;;;;15.41;57.46;97103.09;116843;1177;69554;-66
2021/09/20 08:32:32;;;;;;;;;;;;;;;15.38;57.89;97098.95;116833;1177;68380;-66
2021/09/20 08:35:02;;;;;;;;;;;;;;;15.49;58.31;97093.83;116886;1177;59546;-65
2021/09/20 08:37:32;;;;;;;;;;;;;;;15.41;56.65;97094.96;116902;1177;59535;-65
2021/09/20 08:40:03;;;;;;;;;;;;;;;15.42;57.11;97095.20;117002;1177;71459;-66
2021/09/20 08:42:37;;;;;;;;;;;;;;;15.53;56.36;97093.73;116818;1177;68336;-65
2021/09/20 08:45:08;;;;;;;;;;;;;;;15.57;56.69;97093.56;116957;1177;68287;-66
2021/09/20 08:47:40;;;;;;;;;;;;;;;15.53;56.39;97095.35;116888;1177;59515;-66
2021/09/20 08:50:11;;;;;;;;;;;;;;;15.48;57.54;97095.36;117003;1177;59516;-66
2021/09/20 08:52:40;;;;;;;;;;;;;;;15.55;58.01;97099.41;116867;1177;71724;-66
2021/09/20 08:55:10;;;;;;;;;;;;;;;15.61;56.49;97099.34;116826;1177;68452;-66
2021/09/20 08:57:40;;;;;;;;;;;;;;;15.59;55.75;97098.70;116839;1177;68283;-66
2021/09/20 09:00:10;;;;;;;;;;;;;;;15.62;55.91;97096.98;116825;1177;59541;-67
2021/09/20 09:02:40;;;;;;;;;;;;;;;15.79;56.77;97098.08;116833;1177;59538;-68
2021/09/20 09:05:16;;;;;;;;;;;;;;;15.74;54.15;97091.59;116889;1177;71195;-68
2021/09/20 09:07:49;;;;;;;;;;;;;;;15.96;56.01;97093.59;116904;1177;69044;-65
2021/09/20 09:10:21;;;;;;;;;;;;;;;16.32;56.70;97098.98;116895;1177;69374;-65
2021/09/20 09:12:51;;;;;;;;;;;;;;;16.75;55.79;97098.82;116812;1177;59523;-67
2021/09/20 09:15:22;;;;;;;;;;;;;;;17.48;54.56;97091.71;116926;1177;59496;-68
2021/09/20 09:17:54;;;;;;;;;;;;;;;18.39;50.09;97077.12;116856;1177;70609;-68
2021/09/20 09:20:24;;;;;;;;;;;;;;;19.29;49.84;97081.05;116786;1180;69205;-66
2021/09/20 09:22:56;;;;;;;;;;;;;;;19.88;44.88;97088.33;116885;1177;69426;-68
2021/09/20 09:25:37;;;;;;;;;;;;;;;19.66;44.15;97084.10;116859;1177;59593;-67
2021/09/20 09:28:13;;;;;;;;;;;;;;;20.49;46.84;97089.78;116883;1177;59513;-69
2021/09/20 09:30:44;;;;;;;;;;;;;;;20.99;44.51;97086.89;116983;1177;71526;-66
2021/09/20 09:33:21;;;;;;;;;;;;;;;20.84;43.98;97084.52;117077;1177;68808;-69
2021/09/20 09:35:53;;;;;;;;;;;;;;;20.11;44.26;97078.89;116981;1177;68770;-69
2021/09/20 09:38:22;;;;;;;;;;;;;;;20.03;46.04;97085.77;116980;1177;59538;-66
2021/09/20 09:40:59;;;;;;;;;;;;;;;19.81;46.20;97085.83;116853;1177;59605;-64
2021/09/20 09:43:35;;;;;;;;;;;;;;;19.71;46.11;97078.05;116840;1177;70562;-68
2021/09/20 09:46:23;;;;;;;;;;;;;;;19.07;45.37;97069.83;116970;1177;69203;-68
2021/09/20 09:48:54;;;;;;;;;;;;;;;18.16;48.19;97065.42;116957;1177;68363;-67
2021/09/20 09:51:23;;;;;;;;;;;;;;;18.10;48.56;97066.59;116940;1177;59549;-66
2021/09/20 09:53:51;;;;;;;;;;;;;;;18.45;48.62;97063.79;116875;1177;59513;-67
2021/09/20 09:56:25;;;;;;;;;;;;;;;18.71;48.43;97067.84;116853;1177;71410;-66
2021/09/20 09:58:55;;;;;;;;;;;;;;;18.94;48.49;97076.07;116877;1177;69155;-67
2021/09/20 10:01:33;;;;;;;;;;;;;;;19.09;48.21;97070.03;116894;1177;68318;-66
2021/09/20 10:04:06;;;;;;;;;;;;;;;19.14;47.92;97061.23;116891;1180;59514;-69
2021/09/20 10:06:41;;;;;;;;;;;;;;;19.21;47.96;97065.24;116999;1177;59535;-65
2021/09/20 10:09:11;;;;;;;;;;;;;;;19.24;47.80;97064.91;116941;1177;70836;-68
2021/09/20 10:11:42;;;;;;;;;;;;;;;19.21;48.02;97063.13;116996;1177;69332;-68
2021/09/20 10:14:14;;;;;;;;;;;;;;;19.13;47.58;97063.34;116967;1177;68474;-66
2021/09/20 10:16:46;;;;;;;;;;;;;;;19.00;48.15;97066.30;116998;1177;59982;-67
2021/09/20 10:19:15;;;;;;;;;;;;;;;18.80;48.46;97061.52;116919;1177;59457;-68
2021/09/20 10:21:44;;;;;;;;;;;;;;;18.64;48.86;97062.48;116769;1178;71605;-68
2021/09/20 10:24:14;;;;;;;;;;;;;;;18.65;49.13;97058.23;116973;1177;69228;-69
2021/09/20 10:26:44;;;;;;;;;;;;;;;18.61;47.99;97051.83;116888;1177;69255;-66
2021/09/20 10:29:15;;;;;;;;;;;;;;;18.49;48.53;97047.96;117018;1177;59538;-66
2021/09/20 10:31:47;;;;;;;;;;;;;;;18.52;48.62;97046.26;117074;1177;59537;-66
2021/09/20 10:34:19;;;;;;;;;;;;;;;18.54;49.48;97046.00;116958;1177;71264;-67
2021/09/20 10:36:50;;;;;;;;;;;;;;;18.51;49.58;97041.63;117083;1177;69052;-66
2021/09/20 10:39:39;;;;;;;;;;;;;;;18.50;49.13;97042.83;116877;1177;68247;-67
2021/09/20 10:42:11;;;;;;;;;;;;;;;18.46;49.69;97044.84;116869;1178;59605;-66
2021/09/20 10:44:40;;;;;;;;;;;;;;;18.50;49.85;97044.04;116955;1177;59458;-66
2021/09/20 10:47:15;;;;;;;;;;;;;;;18.52;49.49;97045.77;117021;1177;70452;-68
2021/09/20 10:49:48;;;;;;;;;;;;;;;18.50;48.75;97046.70;116998;1177;69119;-66
2021/09/20 10:52:17;;;;;;;;;;;;;;;18.43;48.27;97043.58;116900;1178;68283;-68
2021/09/20 10:55:03;;;;;;;;;;;;;;;18.35;48.69;97038.84;116796;1177;59509;-67
2021/09/20 10:57:33;;;;;;;;;;;;;;;18.26;48.85;97037.34;116885;1177;59543;-69
2021/09/20 11:00:21;;;;;;;;;;;;;;;18.10;49.98;97042.83;116881;1177;70817;-65
2021/09/20 11:02:50;;;;;;;;;;;;;;;18.05;50.27;97044.41;116804;1177;68550;-65
2021/09/20 11:05:25;;;;;;;;;;;;;;;17.44;50.74;97049.56;116773;1177;69302;-65
2021/09/20 11:07:54;;;;;;;;;;;;;;;16.35;54.30;97044.85;116777;1177;59548;-70
2021/09/20 11:10:30;;;;;;;;;;;;;;;16.40;54.38;97043.31;116831;1177;59528;-67
2021/09/20 11:13:04;;;;;;;;;;;;;;;16.13;54.78;97047.99;117001;1177;70161;-67
2021/09/20 11:15:40;;;;;;;;;;;;;;;15.93;54.95;97051.34;116999;1177;69198;-66
2021/09/20 11:18:09;;;;;;;;;;;;;;;16.02;55.27;97054.35;116970;1177;69272;-66
2021/09/20 11:20:39;;;;;;;;;;;;;;;16.12;55.32;97058.30;116671;1179;59540;-69
2021/09/20 11:23:16;;;;;;;;;;;;;;;16.22;55.02;97056.53;116964;1177;59539;-67
2021/09/20 11:26:03;;;;;;;;;;;;;;;16.34;55.21;97056.79;116982;1177;69442;-67
2021/09/20 11:28:33;;;;;;;;;;;;;;;16.21;54.99;97054.57;116902;1177;68508;-66
2021/09/20 11:31:03;;;;;;;;;;;;;;;15.81;55.88;97054.16;116983;1177;68554;-69
2021/09/20 11:33:33;;;;;;;;;;;;;;;15.60;56.68;97050.73;117015;1177;59549;-66
2021/09/20 11:36:11;;;;;;;;;;;;;;;15.47;57.08;97056.84;116906;1179;59600;-65
2021/09/20 11:38:40;;;;;;;;;;;;;;;15.23;58.27;97055.94;116824;1177;70780;-65
2021/09/20 11:41:17;;;;;;;;;;;;;;;15.16;59.05;97054.23;116856;1177;68246;-68
2021/09/20 11:43:46;;;;;;;;;;;;;;;15.21;58.22;97051.08;116827;1177;70195;-67
2021/09/20 11:46:23;;;;;;;;;;;;;;;15.10;58.89;97041.45;116766;1180;59526;-67
2021/09/20 11:49:06;;;;;;;;;;;;;;;14.90;60.30;97032.58;116997;1177;59551;-65
2021/09/20 11:51:36;;;;;;;;;;;;;;;14.84;60.63;97021.84;116916;1178;71365;-66
2021/09/20 11:54:06;;;;;;;;;;;;;;;14.67;61.06;97019.14;116822;1179;68752;-66
2021/09/20 11:56:35;;;;;;;;;;;;;;;14.51;63.35;97022.87;116841;1179;68592;-67
2021/09/20 11:59:03;;;;;;;;;;;;;;;14.53;62.79;97024.86;116844;1177;59509;-67
2021/09/20 12:01:32;;;;;;;;;;;;;;;14.47;64.92;97026.38;116959;1178;59547;-67
2021/09/20 12:04:02;;;;;;;;;;;;;;;14.46;65.37;97032.27;116861;1179;71203;-67
2021/09/20 12:06:31;;;;;;;;;;;;;;;14.41;65.86;97035.73;116968;1177;68495;-67
2021/09/20 12:09:03;;;;;;;;;;;;;;;13.82;68.89;97047.92;116646;1179;69205;-67
2021/09/20 12:11:32;;;;;;;;;;;;;;;13.34;71.12;97049.67;116723;1179;59511;-65
2021/09/20 12:14:08;;;;;;;;;;;;;;;13.45;72.05;97043.23;116767;1178;59545;-66
2021/09/20 12:16:58;;;;;;;;;;;;;;;13.43;72.14;97041.96;116804;1178;71478;-65
2021/09/20 12:19:27;;;;;;;;;;;;;;;13.49;72.19;97042.88;116854;1180;68298;-65
2021/09/20 12:22:00;;;;;;;;;;;;;;;13.51;71.44;97042.28;116940;1177;67343;-67
2021/09/20 12:24:29;;;;;;;;;;;;;;;13.41;73.34;97037.29;116713;1180;59602;-68
2021/09/20 12:27:05;;;;;;;;;;;;;;;13.54;73.62;97030.71;116740;1179;59516;-65
2021/09/20 12:29:34;;;;;;;;;;;;;;;13.70;72.31;97023.73;116821;1177;70467;-66
2021/09/20 12:32:05;;;;;;;;;;;;;;;13.72;71.36;97029.39;116829;1178;69020;-65
2021/09/20 12:34:34;;;;;;;;;;;;;;;13.67;70.24;97017.24;116805;1180;69410;-66
2021/09/20 12:37:06;;;;;;;;;;;;;;;13.58;70.58;97017.19;116758;1179;59542;-67
2021/09/20 12:39:37;;;;;;;;;;;;;;;13.63;71.07;97026.19;116752;1179;59497;-66
2021/09/20 12:42:07;;;;;;;;;;;;;;;13.68;72.11;97027.10;116782;1179;70517;-65
2021/09/20 12:44:38;;;;;;;;;;;;;;;13.70;72.13;97038.45;116711;1179;68561;-66
2021/09/20 12:47:11;;;;;;;;;;;;;;;13.65;71.53;97042.07;116717;1179;69319;-67
2021/09/20 12:49:41;;;;;;;;;;;;;;;13.54;71.56;97048.35;116939;1177;59526;-65
2021/09/20 12:52:22;;;;;;;;;;;;;;;13.47;71.68;97047.76;116688;1179;59545;-68
2021/09/20 12:55:12;;;;;;;;;;;;;;;13.44;72.09;97036.33;116757;1180;72066;-67
2021/09/20 12:57:49;;;;;;;;;;;;;;;13.37;71.82;97028.73;116752;1179;68306;-67
2021/09/20 13:00:18;;;;;;;;;;;;;;;13.39;72.01;97029.88;116870;1179;68588;-66